Salem, South Dakota
Current Conditions -  °F | °C
As of 3:50 AM on Saturday 29 Nov 2014 (Local Time) from KMDS Reporting Station
Haze Haze  
Wind Chill: 11°   Ceiling: Unl
Heat Index: 19°   Visibility: 6mi
Dew Point: 19°   Wind: 6mph
Humidity: 100%   Direction: 180°S
Pressure: 29.44"   Gusts: NA
Location:  43.72°N, 97.39°W
Report Text: KMDS 290950Z AUTO 18005KT 6SM BR CLR M07/M07 A2944 RMK AO2
Loading
Personal Weather Stations






























Interactive Weather Map New forecast layout! Learn more

10-Day Weather Forecast

Advertisements
Track Severe Weather on mobile